Time;durP1;ratioP1;P1;durP2;ratioP2;P2;SDS_P1;SDS_P2;PMS_P1;PMS_P2;Temp;Humidity;BMP_temperature;BMP_pressure;BME280_temperature;BME280_humidity;BME280_pressure;Samples;Min_cycle;Max_cycle;Signal;HPM_P1;HPM_P2
2022/01/21 00:01:57;;;;;;;8.70;6.93;;;;;;;;;;5072304;28;20565;-81
2022/01/21 00:04:24;;;;;;;8.07;6.60;;;;;;;;;;5072936;28;20215;-82
2022/01/21 00:06:51;;;;;;;11.37;6.80;;;;;;;;;;5072620;28;20732;-81
2022/01/21 00:09:18;;;;;;;10.90;7.97;;;;;;;;;;5072776;28;20185;-82
2022/01/21 00:11:49;;;;;;;10.77;7.37;;;;;;;;;;5072281;28;20231;-82
2022/01/21 00:14:16;;;;;;;14.83;7.60;;;;;;;;;;5072318;28;20193;-82
2022/01/21 00:16:44;;;;;;;8.97;7.20;;;;;;;;;;5072768;28;20262;-82
2022/01/21 00:19:14;;;;;;;10.30;5.57;;;;;;;;;;5072365;28;20204;-82
2022/01/21 00:30:14;;;;;;;14.90;8.30;;;;;;;;;;5072677;28;20177;-82
2022/01/21 00:32:45;;;;;;;14.40;8.30;;;;;;;;;;5072262;28;20604;-82
2022/01/21 00:35:13;;;;;;;12.53;6.60;;;;;;;;;;5072582;28;20577;-82
2022/01/21 00:37:40;;;;;;;8.90;6.50;;;;;;;;;;5072093;28;20195;-81
2022/01/21 00:40:10;;;;;;;13.63;8.00;;;;;;;;;;5072359;28;20196;-81
2022/01/21 00:43:11;;;;;;;9.60;7.10;;;;;;;;;;5072318;28;20231;-81
2022/01/21 00:45:38;;;;;;;11.67;7.10;;;;;;;;;;5072053;28;20269;-82
2022/01/21 00:48:07;;;;;;;13.67;8.83;;;;;;;;;;5071982;28;20584;-81
2022/01/21 00:50:35;;;;;;;10.43;8.40;;;;;;;;;;5071954;28;20287;-82
2022/01/21 00:53:02;;;;;;;13.77;8.67;;;;;;;;;;5071928;28;20204;-81
2022/01/21 00:55:39;;;;;;;13.37;8.10;;;;;;;;;;5071895;28;20201;-82
2022/01/21 00:58:06;;;;;;;11.63;7.30;;;;;;;;;;5071338;28;20735;-82
2022/01/21 01:00:34;;;;;;;12.30;6.93;;;;;;;;;;5072009;28;20677;-82
2022/01/21 01:03:09;;;;;;;10.80;7.90;;;;;;;;;;5071479;28;20708;-83
2022/01/21 01:05:36;;;;;;;9.63;7.93;;;;;;;;;;5071561;28;20250;-82
2022/01/21 01:08:04;;;;;;;9.03;6.63;;;;;;;;;;5071728;28;20211;-82
2022/01/21 01:10:48;;;;;;;8.73;5.80;;;;;;;;;;5072146;28;20196;-82
2022/01/21 01:21:30;;;;;;;18.90;11.83;;;;;;;;;;5071713;28;20181;-82
2022/01/21 01:27:35;;;;;;;15.33;10.90;;;;;;;;;;5072935;28;20788;-82
2022/01/21 01:29:36;;;;;;;12.27;7.73;;;;;;;;;;5076102;28;20258;-82
2022/01/21 01:32:05;;;;;;;11.00;8.00;;;;;;;;;;5075496;28;20203;-82
2022/01/21 01:34:34;;;;;;;8.47;6.33;;;;;;;;;;5075514;28;20685;-82
2022/01/21 01:37:07;;;;;;;9.17;6.23;;;;;;;;;;5075437;28;20573;-82
2022/01/21 01:39:40;;;;;;;10.23;7.00;;;;;;;;;;5075546;28;20225;-82
2022/01/21 01:42:37;;;;;;;11.77;8.37;;;;;;;;;;5075244;28;20590;-82
2022/01/21 01:50:36;;;;;;;8.23;6.77;;;;;;;;;;5075305;28;20568;-83
2022/01/21 01:53:05;;;;;;;7.53;5.63;;;;;;;;;;5075383;28;20219;-81
2022/01/21 01:55:33;;;;;;;9.97;6.87;;;;;;;;;;5075244;28;20236;-82
2022/01/21 01:58:00;;;;;;;16.83;7.83;;;;;;;;;;5074612;28;20264;-82
2022/01/21 02:00:28;;;;;;;12.83;6.60;;;;;;;;;;5075341;28;20201;-81
2022/01/21 02:02:55;;;;;;;10.03;7.97;;;;;;;;;;5074874;28;20221;-83
2022/01/21 02:05:22;;;;;;;9.73;6.57;;;;;;;;;;5075180;28;20201;-82
2022/01/21 02:07:51;;;;;;;9.97;7.17;;;;;;;;;;5074794;28;20193;-83
2022/01/21 02:10:18;;;;;;;22.23;15.33;;;;;;;;;;5074806;28;20203;-83
2022/01/21 02:12:45;;;;;;;16.60;11.17;;;;;;;;;;5062128;28;20205;-83
2022/01/21 02:15:12;;;;;;;13.00;9.57;;;;;;;;;;5064356;28;20217;-82
2022/01/21 02:23:10;;;;;;;13.57;9.50;;;;;;;;;;5064393;28;20208;-83
2022/01/21 02:25:37;;;;;;;10.40;9.03;;;;;;;;;;5064358;28;20201;-83
2022/01/21 02:28:04;;;;;;;12.87;9.23;;;;;;;;;;5064403;28;20194;-82
2022/01/21 02:30:32;;;;;;;11.53;7.77;;;;;;;;;;5062464;28;20198;-82
2022/01/21 02:33:00;;;;;;;14.10;9.13;;;;;;;;;;5062367;28;20193;-83
2022/01/21 02:35:27;;;;;;;11.73;8.10;;;;;;;;;;5063663;28;20200;-83
2022/01/21 02:37:55;;;;;;;12.33;9.07;;;;;;;;;;5062766;28;20194;-83
2022/01/21 02:40:24;;;;;;;12.37;8.90;;;;;;;;;;5062402;28;20708;-83
2022/01/21 02:42:51;;;;;;;13.97;8.73;;;;;;;;;;5062078;28;20205;-83
2022/01/21 02:45:18;;;;;;;12.20;8.13;;;;;;;;;;5062923;28;20565;-82
2022/01/21 02:47:46;;;;;;;12.60;8.67;;;;;;;;;;5062548;28;20202;-83
2022/01/21 02:50:15;;;;;;;10.20;7.73;;;;;;;;;;5062362;28;20280;-83
2022/01/21 02:52:57;;;;;;;13.17;8.17;;;;;;;;;;5064791;28;20347;-82
2022/01/21 02:55:26;;;;;;;13.20;8.60;;;;;;;;;;5061732;28;20190;-82
2022/01/21 02:57:53;;;;;;;12.30;8.30;;;;;;;;;;5062416;28;20659;-82
2022/01/21 03:00:21;;;;;;;10.60;8.30;;;;;;;;;;5063866;28;20730;-82
2022/01/21 03:02:48;;;;;;;35.30;19.50;;;;;;;;;;5062835;28;20236;-82
2022/01/21 03:05:16;;;;;;;21.73;11.47;;;;;;;;;;5063151;28;20233;-82
2022/01/21 03:07:44;;;;;;;11.47;8.97;;;;;;;;;;5060937;28;20201;-82
2022/01/21 03:10:11;;;;;;;34.33;22.47;;;;;;;;;;5053782;28;20194;-82
2022/01/21 03:12:40;;;;;;;19.97;13.77;;;;;;;;;;5053596;28;20603;-82
2022/01/21 03:15:08;;;;;;;77.37;45.00;;;;;;;;;;5053836;28;20190;-83
2022/01/21 03:17:35;;;;;;;75.07;44.67;;;;;;;;;;5053659;28;20300;-82
2022/01/21 03:20:04;;;;;;;47.53;30.97;;;;;;;;;;5053574;28;20197;-82
2022/01/21 03:22:31;;;;;;;39.63;25.90;;;;;;;;;;5053869;28;20651;-83
2022/01/21 03:24:58;;;;;;;30.30;23.10;;;;;;;;;;5056728;28;20227;-84
2022/01/21 03:27:26;;;;;;;23.57;17.93;;;;;;;;;;5073530;28;20731;-83
2022/01/21 03:29:55;;;;;;;11.83;8.60;;;;;;;;;;5069748;28;20292;-83
2022/01/21 03:32:23;;;;;;;13.80;8.73;;;;;;;;;;5053365;28;20206;-83
2022/01/21 03:34:50;;;;;;;11.87;10.13;;;;;;;;;;5053464;28;20198;-82
2022/01/21 03:37:18;;;;;;;13.83;9.93;;;;;;;;;;5053179;28;20223;-83
2022/01/21 03:39:45;;;;;;;16.60;10.50;;;;;;;;;;5053317;28;20551;-84
2022/01/21 03:42:12;;;;;;;11.30;8.27;;;;;;;;;;5053297;28;20194;-83
2022/01/21 03:44:40;;;;;;;9.23;6.93;;;;;;;;;;5053256;28;20221;-83
2022/01/21 03:47:08;;;;;;;11.23;6.90;;;;;;;;;;5052300;28;20200;-84
2022/01/21 03:49:39;;;;;;;14.70;10.47;;;;;;;;;;5053033;28;20201;-84
2022/01/21 03:52:08;;;;;;;9.87;7.03;;;;;;;;;;5052980;28;20570;-83
2022/01/21 03:54:38;;;;;;;4.80;4.40;;;;;;;;;;5052665;28;20252;-83
2022/01/21 03:57:08;;;;;;;5.97;3.90;;;;;;;;;;5052519;28;20194;-84
2022/01/21 03:59:35;;;;;;;6.83;4.00;;;;;;;;;;5053082;28;20630;-84
2022/01/21 04:02:05;;;;;;;5.43;4.40;;;;;;;;;;5052594;28;20201;-84
2022/01/21 04:04:40;;;;;;;6.20;4.70;;;;;;;;;;5052635;28;20221;-84
2022/01/21 04:07:10;;;;;;;4.43;3.70;;;;;;;;;;5052430;28;20704;-84
2022/01/21 04:09:37;;;;;;;5.20;4.60;;;;;;;;;;5052763;28;20244;-84
2022/01/21 04:12:06;;;;;;;6.10;4.63;;;;;;;;;;5052973;28;20593;-85
2022/01/21 04:14:36;;;;;;;7.77;4.37;;;;;;;;;;5052765;28;20284;-85
2022/01/21 04:17:03;;;;;;;5.57;4.57;;;;;;;;;;5051754;28;20193;-85
2022/01/21 04:19:31;;;;;;;5.07;4.53;;;;;;;;;;5052680;28;20200;-84
2022/01/21 04:21:59;;;;;;;9.77;5.40;;;;;;;;;;5052106;28;20214;-87
2022/01/21 04:24:26;;;;;;;8.70;5.83;;;;;;;;;;5052849;28;20312;-91
2022/01/21 04:26:54;;;;;;;7.53;5.57;;;;;;;;;;5053271;28;20204;-90
2022/01/21 04:29:21;;;;;;;7.27;5.20;;;;;;;;;;5052199;28;20205;-93
2022/01/21 04:31:48;;;;;;;5.97;5.07;;;;;;;;;;5053106;28;20225;-92
2022/01/21 04:34:15;;;;;;;7.03;5.47;;;;;;;;;;5053071;28;20555;-88
2022/01/21 04:36:43;;;;;;;6.80;5.77;;;;;;;;;;5053002;28;20277;-88
2022/01/21 04:39:19;;;;;;;7.23;6.53;;;;;;;;;;5053502;28;20284;-94
2022/01/21 04:47:16;;;;;;;8.30;5.93;;;;;;;;;;5053107;28;20244;-90
2022/01/21 04:47:29;;;;;;;5.87;5.27;;;;;;;;;;5053186;28;20185;-92
2022/01/21 04:49:56;;;;;;;7.73;5.37;;;;;;;;;;5052845;28;20194;-90
2022/01/21 04:52:24;;;;;;;6.40;4.90;;;;;;;;;;5053247;28;20275;-90
2022/01/21 04:54:53;;;;;;;6.07;5.20;;;;;;;;;;5052933;28;20194;-91
2022/01/21 04:57:21;;;;;;;6.70;5.00;;;;;;;;;;5052690;28;20541;-91
2022/01/21 04:59:48;;;;;;;6.33;4.57;;;;;;;;;;5052808;28;20182;-91
2022/01/21 05:02:15;;;;;;;5.60;4.40;;;;;;;;;;5052940;28;20634;-90
2022/01/21 05:04:42;;;;;;;4.30;3.90;;;;;;;;;;5053006;28;20222;-92
2022/01/21 05:07:12;;;;;;;4.03;3.63;;;;;;;;;;5053007;28;20201;-91
2022/01/21 05:09:39;;;;;;;13.93;8.67;;;;;;;;;;5052845;28;20198;-91
2022/01/21 05:12:12;;;;;;;5.70;4.77;;;;;;;;;;5052809;28;20194;-91
2022/01/21 05:14:47;;;;;;;4.57;3.90;;;;;;;;;;5053165;28;20678;-91
2022/01/21 05:17:15;;;;;;;5.90;4.30;;;;;;;;;;5052602;28;20284;-91
2022/01/21 05:19:43;;;;;;;4.00;3.60;;;;;;;;;;5052333;28;20198;-90
2022/01/21 05:22:13;;;;;;;3.60;3.30;;;;;;;;;;5052730;28;20202;-92
2022/01/21 05:24:40;;;;;;;3.87;3.57;;;;;;;;;;5052554;28;20225;-91
2022/01/21 05:27:11;;;;;;;3.67;3.33;;;;;;;;;;5052719;28;20255;-93
2022/01/21 05:29:41;;;;;;;5.93;4.90;;;;;;;;;;5052830;28;20205;-92
2022/01/21 05:32:12;;;;;;;4.40;4.00;;;;;;;;;;5053033;28;20232;-92
2022/01/21 05:34:40;;;;;;;3.90;3.60;;;;;;;;;;5052644;28;20198;-92
2022/01/21 05:37:07;;;;;;;8.00;4.80;;;;;;;;;;5051995;28;20205;-94
2022/01/21 05:39:34;;;;;;;4.77;4.13;;;;;;;;;;5052434;28;20186;-93
2022/01/21 05:42:03;;;;;;;4.63;3.57;;;;;;;;;;5052640;28;20194;-93
2022/01/21 05:47:16;;;;;;;4.90;4.13;;;;;;;;;;5053016;28;20569;-92
2022/01/21 05:49:44;;;;;;;4.60;4.07;;;;;;;;;;5053142;28;20194;-93
2022/01/21 05:52:19;;;;;;;4.77;3.90;;;;;;;;;;5052628;28;20225;-93
2022/01/21 05:54:52;;;;;;;4.80;3.90;;;;;;;;;;5053398;28;20263;-92
2022/01/21 05:57:26;;;;;;;4.20;3.80;;;;;;;;;;5050905;28;20198;-93
2022/01/21 06:01:01;;;;;;;8.20;5.47;;;;;;;;;;5013015;28;20199;-94
2022/01/21 06:03:32;;;;;;;9.97;6.53;;;;;;;;;;5012536;28;20217;-93
2022/01/21 06:05:59;;;;;;;5.20;4.70;;;;;;;;;;5013358;28;20226;-94
2022/01/21 06:08:35;;;;;;;4.50;4.10;;;;;;;;;;5012715;28;20230;-94
2022/01/21 06:11:03;;;;;;;4.43;3.87;;;;;;;;;;5014075;28;20202;-93
2022/01/21 06:13:30;;;;;;;4.63;3.97;;;;;;;;;;5016586;28;20203;-94
2022/01/21 06:15:59;;;;;;;6.30;5.13;;;;;;;;;;5025885;28;20199;-92
2022/01/21 06:18:34;;;;;;;6.90;5.07;;;;;;;;;;5027741;28;20204;-93
2022/01/21 06:21:07;;;;;;;4.40;4.00;;;;;;;;;;5025061;28;20266;-93
2022/01/21 06:23:34;;;;;;;4.47;4.07;;;;;;;;;;5016628;28;20235;-93
2022/01/21 06:26:05;;;;;;;4.10;3.70;;;;;;;;;;5015856;28;20781;-94
2022/01/21 06:28:38;;;;;;;3.17;2.87;;;;;;;;;;5016048;28;20196;-93
2022/01/21 06:31:21;;;;;;;3.00;2.57;;;;;;;;;;5016940;28;20653;-94
2022/01/21 06:33:53;;;;;;;2.40;2.07;;;;;;;;;;5016049;28;20191;-94
2022/01/21 06:36:20;;;;;;;2.20;1.97;;;;;;;;;;5015826;28;20668;-95
2022/01/21 06:38:48;;;;;;;2.83;2.07;;;;;;;;;;5016064;28;20214;-94
2022/01/21 06:41:15;;;;;;;3.43;3.13;;;;;;;;;;5015953;28;20249;-94
2022/01/21 06:43:46;;;;;;;2.50;2.20;;;;;;;;;;5015557;28;20206;-95
2022/01/21 06:46:13;;;;;;;3.27;2.23;;;;;;;;;;5016369;28;20199;-94
2022/01/21 06:49:00;;;;;;;2.23;1.97;;;;;;;;;;5015865;28;20271;-94
2022/01/21 06:51:28;;;;;;;2.27;1.83;;;;;;;;;;5015614;28;20230;-94
2022/01/21 06:53:55;;;;;;;1.80;1.70;;;;;;;;;;5015404;28;20231;-94
2022/01/21 06:56:31;;;;;;;2.57;2.33;;;;;;;;;;5015384;28;20207;-94
2022/01/21 06:58:59;;;;;;;2.07;1.87;;;;;;;;;;5039947;28;20229;-94
2022/01/21 07:01:26;;;;;;;2.13;2.03;;;;;;;;;;5054779;28;20233;-94
2022/01/21 07:03:53;;;;;;;2.77;2.47;;;;;;;;;;5054600;28;20201;-94
2022/01/21 07:06:28;;;;;;;3.00;2.80;;;;;;;;;;5054751;28;20198;-95
2022/01/21 07:08:56;;;;;;;3.30;3.00;;;;;;;;;;5054634;28;20202;-95
2022/01/21 07:11:23;;;;;;;3.57;2.83;;;;;;;;;;5055179;28;20197;-94
2022/01/21 07:13:50;;;;;;;3.33;2.83;;;;;;;;;;5054900;28;20205;-95
2022/01/21 07:16:18;;;;;;;5.63;4.00;;;;;;;;;;5054223;28;20221;-94
2022/01/21 07:18:51;;;;;;;7.10;4.97;;;;;;;;;;5054210;28;20248;-94
2022/01/21 07:21:29;;;;;;;25.53;12.67;;;;;;;;;;5054274;28;20201;-95
2022/01/21 07:23:59;;;;;;;19.23;12.37;;;;;;;;;;5055054;28;20204;-94
2022/01/21 07:26:27;;;;;;;22.00;11.47;;;;;;;;;;5054652;28;20217;-96
2022/01/21 07:28:55;;;;;;;74.77;32.27;;;;;;;;;;5054236;28;20200;-95
2022/01/21 07:31:22;;;;;;;80.63;37.10;;;;;;;;;;5054629;28;20618;-94
2022/01/21 07:33:50;;;;;;;8.97;7.63;;;;;;;;;;5054345;28;20221;-94
2022/01/21 07:36:28;;;;;;;8.43;6.83;;;;;;;;;;5054464;28;20190;-94
2022/01/21 07:39:01;;;;;;;5.23;4.80;;;;;;;;;;5054341;28;20197;-94
2022/01/21 07:41:31;;;;;;;4.83;4.07;;;;;;;;;;5054125;28;20272;-94
2022/01/21 07:43:59;;;;;;;3.53;3.23;;;;;;;;;;5054031;28;20200;-94
2022/01/21 07:46:29;;;;;;;5.27;4.77;;;;;;;;;;5053771;28;20221;-94
2022/01/21 07:49:02;;;;;;;5.67;4.30;;;;;;;;;;5053952;28;20198;-94
2022/01/21 07:51:35;;;;;;;5.90;5.30;;;;;;;;;;5054094;28;20198;-94
2022/01/21 07:54:03;;;;;;;3.70;3.40;;;;;;;;;;5053992;28;20202;-94
2022/01/21 07:56:32;;;;;;;5.23;4.73;;;;;;;;;;5053942;28;20193;-94
2022/01/21 07:59:00;;;;;;;5.47;3.20;;;;;;;;;;5053495;28;20232;-95
2022/01/21 08:01:27;;;;;;;5.57;3.93;;;;;;;;;;5054052;28;20214;-94
2022/01/21 08:03:58;;;;;;;2.03;1.93;;;;;;;;;;5054585;28;20202;-95
2022/01/21 08:06:32;;;;;;;2.53;2.27;;;;;;;;;;5053628;28;20698;-95
2022/01/21 08:09:01;;;;;;;3.60;3.30;;;;;;;;;;5053840;28;20649;-95
2022/01/21 08:11:31;;;;;;;5.67;3.80;;;;;;;;;;5053792;28;20297;-94
2022/01/21 08:14:02;;;;;;;3.77;3.30;;;;;;;;;;5053552;28;20202;-94
2022/01/21 08:16:35;;;;;;;2.57;2.37;;;;;;;;;;5053553;28;20662;-95
2022/01/21 08:19:03;;;;;;;2.27;1.97;;;;;;;;;;5053728;28;20194;-93
2022/01/21 08:21:33;;;;;;;2.90;2.33;;;;;;;;;;5053477;28;20255;-93
2022/01/21 08:24:07;;;;;;;2.40;2.20;;;;;;;;;;5053500;28;20225;-93
2022/01/21 08:26:34;;;;;;;1.60;1.50;;;;;;;;;;5053298;28;20217;-93
2022/01/21 08:29:02;;;;;;;2.00;1.90;;;;;;;;;;5053519;28;20198;-92
2022/01/21 08:31:48;;;;;;;1.80;1.70;;;;;;;;;;5052861;28;20221;-93
2022/01/21 08:34:34;;;;;;;2.93;2.63;;;;;;;;;;5052520;28;20217;-92
2022/01/21 08:37:16;;;;;;;2.43;1.83;;;;;;;;;;5053560;28;20228;-91
2022/01/21 08:39:45;;;;;;;2.40;2.00;;;;;;;;;;5053584;28;20190;-91
2022/01/21 08:42:12;;;;;;;1.50;1.40;;;;;;;;;;5053279;28;20228;-91
2022/01/21 08:44:40;;;;;;;1.53;1.43;;;;;;;;;;5053156;28;20193;-92
2022/01/21 08:47:12;;;;;;;1.80;1.70;;;;;;;;;;5053213;28;20225;-92
2022/01/21 08:49:39;;;;;;;2.20;2.00;;;;;;;;;;5053292;28;20747;-91
2022/01/21 08:52:18;;;;;;;1.40;1.30;;;;;;;;;;5053586;28;20193;-92
2022/01/21 08:54:47;;;;;;;2.13;1.93;;;;;;;;;;5053111;28;20734;-91
2022/01/21 08:57:18;;;;;;;1.50;1.40;;;;;;;;;;5053173;28;20647;-91
2022/01/21 08:59:54;;;;;;;1.20;1.10;;;;;;;;;;5052426;28;20229;-92
2022/01/21 09:02:24;;;;;;;2.00;1.87;;;;;;;;;;5052736;28;20205;-92
2022/01/21 09:05:01;;;;;;;2.97;2.33;;;;;;;;;;5052603;28;20226;-92
2022/01/21 09:07:37;;;;;;;2.17;1.97;;;;;;;;;;5052843;28;20200;-91
2022/01/21 09:10:13;;;;;;;2.07;1.60;;;;;;;;;;5052813;28;20268;-91
2022/01/21 09:12:40;;;;;;;1.80;1.70;;;;;;;;;;5052847;28;20285;-92
2022/01/21 09:15:08;;;;;;;2.97;2.10;;;;;;;;;;5052683;28;20288;-91
2022/01/21 09:17:36;;;;;;;1.93;1.33;;;;;;;;;;5052904;28;20251;-91
2022/01/21 09:20:13;;;;;;;1.60;1.40;;;;;;;;;;5052863;28;20193;-90
2022/01/21 09:22:52;;;;;;;1.80;1.70;;;;;;;;;;5052542;28;20193;-92
2022/01/21 09:25:21;;;;;;;2.60;1.20;;;;;;;;;;5052487;28;20225;-90
2022/01/21 09:27:48;;;;;;;2.50;1.77;;;;;;;;;;5052752;28;20194;-90
2022/01/21 09:30:15;;;;;;;3.23;2.30;;;;;;;;;;5052526;28;20662;-90
2022/01/21 09:32:43;;;;;;;3.50;1.70;;;;;;;;;;5052513;28;20292;-91
2022/01/21 09:35:13;;;;;;;4.83;3.67;;;;;;;;;;5052568;28;20293;-90
2022/01/21 09:37:43;;;;;;;4.33;3.03;;;;;;;;;;5052356;28;20201;-91
2022/01/21 09:40:13;;;;;;;2.57;2.17;;;;;;;;;;5052417;28;20233;-90
2022/01/21 09:42:41;;;;;;;4.70;3.30;;;;;;;;;;5052594;28;20198;-90
2022/01/21 09:45:14;;;;;;;2.10;1.63;;;;;;;;;;5052537;28;20258;-89
2022/01/21 09:47:47;;;;;;;1.37;1.27;;;;;;;;;;5056490;28;20358;-90
2022/01/21 09:50:33;;;;;;;1.40;1.30;;;;;;;;;;5056264;28;20201;-89
2022/01/21 09:53:04;;;;;;;1.40;1.30;;;;;;;;;;5056024;28;20194;-90
2022/01/21 09:55:43;;;;;;;1.10;1.00;;;;;;;;;;5056234;28;20248;-89
2022/01/21 09:58:12;;;;;;;2.30;1.33;;;;;;;;;;5054381;28;20320;-90
2022/01/21 10:00:41;;;;;;;1.97;1.70;;;;;;;;;;5056234;28;20281;-90
2022/01/21 10:03:11;;;;;;;1.23;1.13;;;;;;;;;;5056231;28;20232;-89
2022/01/21 10:05:49;;;;;;;1.20;1.00;;;;;;;;;;5055745;28;20253;-90
2022/01/21 10:08:23;;;;;;;0.90;0.90;;;;;;;;;;5056133;28;20677;-89
2022/01/21 10:10:51;;;;;;;1.43;1.10;;;;;;;;;;5056404;28;20193;-90
2022/01/21 10:13:23;;;;;;;1.23;1.13;;;;;;;;;;5056407;28;20670;-90
2022/01/21 10:16:15;;;;;;;2.33;2.07;;;;;;;;;;5055741;28;20194;-89
2022/01/21 10:19:00;;;;;;;1.03;1.00;;;;;;;;;;5055952;28;20577;-90
2022/01/21 10:21:29;;;;;;;3.07;1.37;;;;;;;;;;5055735;28;20222;-90
2022/01/21 10:24:21;;;;;;;2.00;1.63;;;;;;;;;;5055747;28;20193;-90
2022/01/21 10:26:50;;;;;;;1.00;1.00;;;;;;;;;;5055731;28;20316;-90
2022/01/21 10:29:20;;;;;;;1.20;1.10;;;;;;;;;;5055766;28;20198;-89
2022/01/21 10:32:07;;;;;;;0.80;0.80;;;;;;;;;;5055621;28;20237;-90
2022/01/21 10:34:38;;;;;;;0.80;0.80;;;;;;;;;;5055506;28;20198;-89
2022/01/21 10:37:22;;;;;;;2.30;1.13;;;;;;;;;;5055481;28;20186;-90
2022/01/21 10:40:00;;;;;;;1.37;1.00;;;;;;;;;;5055521;28;20224;-90
2022/01/21 10:42:28;;;;;;;0.83;0.83;;;;;;;;;;5055434;28;20280;-91
2022/01/21 10:44:57;;;;;;;2.00;1.60;;;;;;;;;;5055257;28;20280;-91
2022/01/21 10:47:29;;;;;;;2.17;1.20;;;;;;;;;;5054919;28;20249;-91
2022/01/21 10:50:15;;;;;;;1.60;1.43;;;;;;;;;;5055329;28;20198;-91
2022/01/21 10:52:45;;;;;;;2.07;1.87;;;;;;;;;;5055017;28;20252;-90
2022/01/21 10:55:27;;;;;;;2.07;1.97;;;;;;;;;;5054971;28;20182;-89
2022/01/21 10:58:06;;;;;;;1.70;1.20;;;;;;;;;;5054474;28;20186;-89
2022/01/21 11:00:35;;;;;;;1.30;1.20;;;;;;;;;;5054875;28;20186;-90
2022/01/21 11:03:11;;;;;;;2.77;1.90;;;;;;;;;;5055146;28;20281;-89
2022/01/21 11:05:47;;;;;;;2.17;2.00;;;;;;;;;;5054746;28;20236;-89
2022/01/21 11:08:15;;;;;;;1.40;1.30;;;;;;;;;;5054672;28;20225;-89
2022/01/21 11:10:48;;;;;;;2.20;0.90;;;;;;;;;;5054804;28;20242;-90
2022/01/21 11:13:34;;;;;;;1.10;1.10;;;;;;;;;;5054566;28;20244;-90
2022/01/21 11:16:12;;;;;;;1.37;1.30;;;;;;;;;;5054999;28;20178;-90
2022/01/21 11:19:08;;;;;;;1.30;1.20;;;;;;;;;;5054373;28;20647;-90
2022/01/21 11:21:51;;;;;;;1.17;1.10;;;;;;;;;;5054327;28;20276;-89
2022/01/21 11:24:21;;;;;;;1.60;1.30;;;;;;;;;;5054548;28;20186;-89
2022/01/21 11:27:22;;;;;;;2.97;2.30;;;;;;;;;;5054545;28;20690;-90
2022/01/21 11:29:49;;;;;;;3.77;2.00;;;;;;;;;;5054700;28;20335;-89
2022/01/21 11:32:30;;;;;;;2.30;1.87;;;;;;;;;;5053970;28;20202;-89
2022/01/21 11:35:06;;;;;;;1.50;1.40;;;;;;;;;;5054183;28;20237;-89
2022/01/21 11:37:34;;;;;;;3.03;2.60;;;;;;;;;;5054075;28;20229;-89
2022/01/21 11:40:05;;;;;;;1.83;1.63;;;;;;;;;;5054339;28;20280;-90
2022/01/21 11:42:38;;;;;;;4.13;1.97;;;;;;;;;;5053935;28;20198;-90
2022/01/21 11:45:19;;;;;;;2.83;1.93;;;;;;;;;;5054025;28;20225;-89
2022/01/21 11:48:07;;;;;;;4.70;3.07;;;;;;;;;;5053879;28;20201;-89
2022/01/21 11:50:34;;;;;;;2.33;1.70;;;;;;;;;;5053547;28;20598;-89
2022/01/21 11:53:01;;;;;;;3.73;2.83;;;;;;;;;;5053865;28;20769;-89
2022/01/21 11:55:36;;;;;;;2.30;2.10;;;;;;;;;;5053854;28;20224;-90
2022/01/21 11:58:14;;;;;;;2.37;1.73;;;;;;;;;;5053182;28;20229;-89
2022/01/21 12:00:47;;;;;;;1.63;1.53;;;;;;;;;;5053553;28;20221;-90
2022/01/21 12:03:21;;;;;;;1.73;1.63;;;;;;;;;;5053575;28;20308;-90
2022/01/21 12:05:54;;;;;;;3.83;2.37;;;;;;;;;;5053566;28;20206;-89
2022/01/21 12:08:46;;;;;;;6.23;5.40;;;;;;;;;;5052643;28;20240;-91
2022/01/21 12:11:35;;;;;;;3.87;2.57;;;;;;;;;;5053551;28;20271;-89
2022/01/21 12:14:07;;;;;;;2.40;2.20;;;;;;;;;;5053359;28;20193;-89
2022/01/21 12:16:57;;;;;;;2.87;1.67;;;;;;;;;;5053441;28;20182;-89
2022/01/21 12:19:34;;;;;;;2.27;1.70;;;;;;;;;;5053763;28;20186;-90
2022/01/21 12:22:19;;;;;;;2.93;2.50;;;;;;;;;;5053525;28;20186;-89
2022/01/21 12:25:08;;;;;;;1.30;1.20;;;;;;;;;;5053550;28;20189;-89
2022/01/21 12:27:36;;;;;;;1.70;1.60;;;;;;;;;;5053198;28;20245;-90
2022/01/21 12:30:37;;;;;;;1.70;1.60;;;;;;;;;;5053407;28;20622;-89
2022/01/21 12:33:09;;;;;;;1.67;1.57;;;;;;;;;;5011724;28;20861;-89
2022/01/21 12:35:39;;;;;;;1.37;1.27;;;;;;;;;;5046024;28;20247;-89
2022/01/21 12:41:34;;;;;;;1.10;1.00;;;;;;;;;;5053241;28;20176;-90
2022/01/21 12:44:02;;;;;;;1.90;1.70;;;;;;;;;;5053457;28;20655;-90
2022/01/21 12:46:31;;;;;;;2.33;2.10;;;;;;;;;;5052864;28;20221;-89
2022/01/21 12:49:36;;;;;;;1.17;1.17;;;;;;;;;;5053296;28;20570;-89
2022/01/21 12:52:24;;;;;;;3.27;2.73;;;;;;;;;;5053189;28;20220;-89
2022/01/21 12:57:49;;;;;;;3.60;3.07;;;;;;;;;;5053401;28;20275;-90
2022/01/21 13:00:41;;;;;;;11.00;6.97;;;;;;;;;;5013241;28;20223;-90
2022/01/21 13:03:18;;;;;;;2.37;1.80;;;;;;;;;;5013292;28;20267;-90
2022/01/21 13:05:53;;;;;;;2.20;1.90;;;;;;;;;;5013176;28;20278;-89
2022/01/21 13:08:43;;;;;;;2.63;2.43;;;;;;;;;;5013675;28;20266;-89
2022/01/21 13:11:19;;;;;;;2.03;1.50;;;;;;;;;;5013421;28;20187;-90
2022/01/21 13:13:50;;;;;;;5.03;3.60;;;;;;;;;;5013262;28;20198;-90
2022/01/21 13:16:29;;;;;;;2.40;2.10;;;;;;;;;;5013322;28;20187;-89
2022/01/21 13:19:01;;;;;;;2.40;2.20;;;;;;;;;;5012939;28;20195;-90
2022/01/21 13:21:28;;;;;;;1.77;1.67;;;;;;;;;;5017246;28;20203;-90
2022/01/21 13:23:58;;;;;;;2.60;2.10;;;;;;;;;;5017049;28;20289;-90
2022/01/21 13:26:28;;;;;;;1.87;1.73;;;;;;;;;;5017040;28;20226;-90
2022/01/21 13:29:01;;;;;;;2.20;2.00;;;;;;;;;;5016850;28;20207;-90
2022/01/21 13:31:29;;;;;;;1.90;1.80;;;;;;;;;;5016801;28;20187;-90
2022/01/21 13:34:27;;;;;;;2.37;2.27;;;;;;;;;;5017020;28;20580;-89
2022/01/21 13:36:56;;;;;;;2.53;2.33;;;;;;;;;;5010497;28;20238;-89
2022/01/21 13:39:31;;;;;;;3.83;1.73;;;;;;;;;;5017167;28;20223;-89
2022/01/21 13:42:05;;;;;;;2.70;1.70;;;;;;;;;;5016874;28;20278;-90
2022/01/21 13:44:38;;;;;;;4.27;2.10;;;;;;;;;;5016809;28;20192;-89
2022/01/21 13:47:07;;;;;;;2.53;2.17;;;;;;;;;;5016504;28;20227;-90
2022/01/21 13:49:48;;;;;;;2.10;1.93;;;;;;;;;;5016627;28;20203;-89
2022/01/21 13:52:15;;;;;;;1.60;1.50;;;;;;;;;;5016771;28;20277;-90
2022/01/21 13:54:48;;;;;;;3.97;2.80;;;;;;;;;;5016328;28;20230;-89
2022/01/21 13:57:27;;;;;;;4.30;2.50;;;;;;;;;;5016161;28;20287;-90
2022/01/21 14:00:00;;;;;;;1.47;1.17;;;;;;;;;;5050800;28;20324;-89
2022/01/21 14:02:46;;;;;;;1.30;1.30;;;;;;;;;;5056146;28;20280;-90
2022/01/21 14:05:13;;;;;;;1.83;1.63;;;;;;;;;;5055784;28;20225;-90
2022/01/21 14:07:40;;;;;;;9.00;5.23;;;;;;;;;;5055739;28;20221;-90
2022/01/21 14:10:11;;;;;;;5.67;4.73;;;;;;;;;;5055845;28;20237;-90
2022/01/21 14:12:45;;;;;;;3.70;3.37;;;;;;;;;;5055716;28;20722;-89
2022/01/21 14:15:12;;;;;;;2.97;2.77;;;;;;;;;;5056186;28;20273;-90
2022/01/21 14:17:44;;;;;;;2.97;2.00;;;;;;;;;;5056136;28;20201;-90
2022/01/21 14:20:21;;;;;;;2.70;2.23;;;;;;;;;;5055744;28;20244;-89
2022/01/21 14:22:51;;;;;;;3.83;3.07;;;;;;;;;;5055796;28;20189;-90
2022/01/21 14:25:20;;;;;;;4.07;2.90;;;;;;;;;;5055430;28;20194;-89
2022/01/21 14:28:06;;;;;;;5.73;2.27;;;;;;;;;;5055490;28;20232;-90
2022/01/21 14:30:41;;;;;;;1.70;1.60;;;;;;;;;;5055183;28;20244;-90
2022/01/21 14:33:09;;;;;;;3.67;2.57;;;;;;;;;;5054767;28;20189;-90
2022/01/21 14:35:46;;;;;;;1.90;1.60;;;;;;;;;;5055480;28;20194;-89
2022/01/21 14:38:19;;;;;;;1.93;1.60;;;;;;;;;;5055289;28;20198;-89
2022/01/21 14:40:50;;;;;;;2.47;1.80;;;;;;;;;;5055366;28;20197;-90
2022/01/21 14:43:21;;;;;;;1.60;1.50;;;;;;;;;;5055107;28;20194;-89
2022/01/21 14:45:56;;;;;;;1.47;1.37;;;;;;;;;;5055499;28;20197;-89
2022/01/21 14:48:26;;;;;;;1.83;1.60;;;;;;;;;;5055394;28;20290;-91
2022/01/21 14:51:10;;;;;;;1.33;1.23;;;;;;;;;;5055195;28;20228;-90
2022/01/21 14:53:42;;;;;;;1.60;1.50;;;;;;;;;;5055146;28;20194;-90
2022/01/21 14:56:28;;;;;;;3.73;2.00;;;;;;;;;;5055056;28;20194;-90
2022/01/21 14:59:17;;;;;;;1.40;1.30;;;;;;;;;;5054359;28;20237;-89
2022/01/21 15:02:01;;;;;;;1.47;1.17;;;;;;;;;;5054608;28;20202;-90
2022/01/21 15:04:37;;;;;;;1.10;1.10;;;;;;;;;;5054818;28;20197;-89
2022/01/21 15:07:10;;;;;;;1.33;1.23;;;;;;;;;;5054667;28;20221;-90
2022/01/21 15:09:42;;;;;;;4.27;3.30;;;;;;;;;;5054733;28;20237;-90
2022/01/21 15:15:29;;;;;;;5.37;2.80;;;;;;;;;;5054723;28;20645;-90
2022/01/21 15:18:04;;;;;;;5.97;3.87;;;;;;;;;;5054640;28;20201;-90
2022/01/21 15:20:39;;;;;;;6.13;4.83;;;;;;;;;;5054515;28;20204;-90
2022/01/21 15:23:07;;;;;;;3.30;2.03;;;;;;;;;;5054584;28;20747;-91
2022/01/21 15:25:38;;;;;;;7.70;4.47;;;;;;;;;;5054980;28;20655;-89
2022/01/21 15:28:10;;;;;;;6.67;4.30;;;;;;;;;;5054144;28;20312;-89
2022/01/21 15:30:38;;;;;;;4.97;2.73;;;;;;;;;;5054212;28;20194;-90
2022/01/21 15:33:06;;;;;;;9.00;4.40;;;;;;;;;;5054098;28;20208;-89
2022/01/21 15:35:33;;;;;;;6.67;3.37;;;;;;;;;;5054420;28;20675;-90
2022/01/21 15:38:01;;;;;;;7.10;4.40;;;;;;;;;;5054013;28;20681;-90
2022/01/21 15:40:30;;;;;;;15.53;8.80;;;;;;;;;;5053859;28;20218;-89
2022/01/21 15:43:00;;;;;;;17.77;8.87;;;;;;;;;;5054042;28;20202;-88
2022/01/21 15:45:29;;;;;;;10.70;4.63;;;;;;;;;;5053991;28;20198;-90
2022/01/21 15:47:56;;;;;;;6.03;2.47;;;;;;;;;;5053866;28;20327;-88
2022/01/21 15:50:24;;;;;;;4.60;3.43;;;;;;;;;;5053570;28;20233;-88
2022/01/21 15:52:51;;;;;;;4.50;3.13;;;;;;;;;;5053802;28;20328;-89
2022/01/21 15:55:20;;;;;;;2.77;2.33;;;;;;;;;;5053818;28;20230;-90
2022/01/21 15:57:48;;;;;;;5.47;4.07;;;;;;;;;;5053638;28;20229;-90